createdAt,value
2018-12-23T00:00:16.854Z,8.50
2018-12-23T00:01:22.354Z,8.80
2018-12-23T00:02:27.868Z,8.80
2018-12-23T00:03:33.374Z,8.60
2018-12-23T00:04:38.884Z,9.40
2018-12-23T00:05:44.397Z,8.50
2018-12-23T00:06:49.903Z,8.70
2018-12-23T00:07:55.416Z,9.10
2018-12-23T00:09:00.921Z,9.30
2018-12-23T00:10:06.436Z,9.50
2018-12-23T00:11:11.940Z,9.10
2018-12-23T00:12:17.447Z,8.40
2018-12-23T00:13:22.962Z,9.00
2018-12-23T00:14:28.470Z,8.60
2018-12-23T00:15:33.977Z,9.50
2018-12-23T00:16:39.488Z,9.10
2018-12-23T00:17:44.991Z,9.50
2018-12-23T00:18:50.511Z,9.30
2018-12-23T00:19:56.013Z,8.70
2018-12-23T00:21:01.528Z,9.10
2018-12-23T00:22:07.041Z,8.70
2018-12-23T00:23:12.539Z,9.10
2018-12-23T00:24:18.060Z,9.10
2018-12-23T00:25:23.566Z,9.40
2018-12-23T00:26:29.081Z,9.50
2018-12-23T00:27:34.586Z,9.40
2018-12-23T00:28:40.090Z,9.70
2018-12-23T00:29:45.612Z,9.10
2018-12-23T00:30:51.110Z,9.20
2018-12-23T00:31:56.630Z,8.80
2018-12-23T00:33:02.129Z,9.60
2018-12-23T00:34:07.637Z,9.30
2018-12-23T00:35:20.299Z,9.40
2018-12-23T00:36:18.665Z,10.10
2018-12-23T00:37:24.183Z,9.50
2018-12-23T00:38:29.676Z,10.00
2018-12-23T00:39:35.188Z,9.40
2018-12-23T00:40:40.695Z,9.70
2018-12-23T00:41:46.211Z,9.10
2018-12-23T00:42:51.709Z,9.70
2018-12-23T00:43:57.221Z,10.00
2018-12-23T00:45:02.783Z,9.60
2018-12-23T00:46:08.238Z,9.10
2018-12-23T00:47:13.749Z,10.50
2018-12-23T00:48:19.262Z,9.30
2018-12-23T00:49:24.777Z,9.90
2018-12-23T00:50:30.280Z,10.00
2018-12-23T00:51:35.790Z,10.00
2018-12-23T00:52:41.301Z,9.80
2018-12-23T00:53:46.810Z,10.20
2018-12-23T00:54:52.318Z,9.40
2018-12-23T00:55:57.830Z,9.70
2018-12-23T00:57:03.333Z,10.30
2018-12-23T00:58:08.845Z,10.10
2018-12-23T00:59:14.354Z,9.90
2018-12-23T01:00:19.868Z,10.40
2018-12-23T01:01:25.376Z,9.60
2018-12-23T01:02:30.879Z,10.30
2018-12-23T01:03:36.413Z,10.30
2018-12-23T01:04:41.899Z,10.70
2018-12-23T01:05:47.415Z,9.80
2018-12-23T01:06:52.927Z,10.10
2018-12-23T01:07:58.442Z,9.80
2018-12-23T01:09:03.949Z,10.30
2018-12-23T01:10:09.449Z,10.70
2018-12-23T01:11:14.961Z,10.60
2018-12-23T01:12:20.471Z,10.50
2018-12-23T01:13:25.979Z,11.10
2018-12-23T01:14:31.485Z,10.90
2018-12-23T01:15:37.008Z,11.30
2018-12-23T01:16:42.516Z,11.20
2018-12-23T01:17:48.018Z,10.90
2018-12-23T01:18:53.527Z,11.50
2018-12-23T01:19:59.048Z,11.10
2018-12-23T01:21:04.544Z,10.50
2018-12-23T01:22:10.053Z,10.40
2018-12-23T01:23:15.569Z,10.90
2018-12-23T01:24:21.122Z,11.00
2018-12-23T01:25:26.588Z,11.10
2018-12-23T01:26:32.096Z,11.20
2018-12-23T01:27:37.605Z,11.10
2018-12-23T01:28:43.112Z,10.60
2018-12-23T01:29:48.623Z,10.10
2018-12-23T01:30:54.126Z,10.50
2018-12-23T01:31:59.639Z,11.00
2018-12-23T01:33:05.147Z,10.80
2018-12-23T01:34:10.659Z,10.40
2018-12-23T01:35:16.171Z,10.30
2018-12-23T01:36:21.683Z,10.70
2018-12-23T01:37:27.186Z,10.50
2018-12-23T01:38:32.701Z,10.30
2018-12-23T01:39:38.206Z,10.10
2018-12-23T01:40:43.718Z,10.90
2018-12-23T01:41:49.225Z,10.80
2018-12-23T01:42:54.737Z,11.00
2018-12-23T01:44:00.242Z,11.00
2018-12-23T01:45:05.753Z,11.30
2018-12-23T01:46:11.260Z,11.00
2018-12-23T01:47:16.774Z,10.40
2018-12-23T01:48:22.285Z,10.50
2018-12-23T01:49:27.792Z,10.40
2018-12-23T01:50:33.304Z,10.40
2018-12-23T01:51:38.810Z,10.50
2018-12-23T01:52:44.320Z,11.70
2018-12-23T01:53:49.832Z,10.90
2018-12-23T01:54:55.339Z,10.40
2018-12-23T01:56:00.848Z,10.10
2018-12-23T01:57:06.357Z,9.90
2018-12-23T01:58:11.868Z,10.40
2018-12-23T01:59:17.385Z,9.70
2018-12-23T02:00:22.887Z,10.10
2018-12-23T02:01:28.396Z,9.90
2018-12-23T02:02:33.905Z,11.20
2018-12-23T02:03:39.415Z,10.90
2018-12-23T02:04:44.933Z,10.60
2018-12-23T02:05:50.433Z,10.80
2018-12-23T02:06:55.945Z,11.10
2018-12-23T02:08:01.459Z,11.10
2018-12-23T02:09:06.963Z,10.70
2018-12-23T02:10:12.478Z,11.70
2018-12-23T02:11:17.983Z,11.20
2018-12-23T02:12:23.490Z,11.10
2018-12-23T02:13:29.015Z,12.10
2018-12-23T02:14:34.506Z,12.10
2018-12-23T02:15:40.027Z,11.80
2018-12-23T02:16:45.539Z,12.30
2018-12-23T02:17:51.035Z,12.60
2018-12-23T02:18:56.549Z,13.10
2018-12-23T02:20:02.065Z,13.20
2018-12-23T02:21:07.566Z,13.10
2018-12-23T02:22:13.083Z,12.80
2018-12-23T02:23:18.584Z,13.60
2018-12-23T02:24:24.095Z,12.70
2018-12-23T02:25:29.605Z,13.60
2018-12-23T02:26:35.112Z,13.50
2018-12-23T02:27:40.629Z,13.40
2018-12-23T02:28:46.131Z,13.70
2018-12-23T02:29:51.644Z,14.00
2018-12-23T02:30:57.151Z,13.30
2018-12-23T02:32:02.663Z,13.80
2018-12-23T02:33:08.172Z,14.80
2018-12-23T02:34:13.688Z,13.90
2018-12-23T02:35:19.193Z,14.20
2018-12-23T02:36:24.701Z,15.30
2018-12-23T02:37:30.212Z,15.00
2018-12-23T02:38:35.720Z,15.30
2018-12-23T02:39:41.240Z,15.60
2018-12-23T02:40:46.741Z,15.70
2018-12-23T02:41:52.247Z,15.90
2018-12-23T02:42:57.764Z,15.60
2018-12-23T02:44:03.274Z,16.10
2018-12-23T02:45:08.772Z,15.80
2018-12-23T02:46:14.288Z,16.50
2018-12-23T02:47:19.808Z,16.70
2018-12-23T02:48:25.304Z,17.10
2018-12-23T02:49:30.823Z,16.50
2018-12-23T02:50:36.328Z,16.00
2018-12-23T02:51:41.834Z,17.10
2018-12-23T02:52:47.348Z,16.60
2018-12-23T02:53:52.864Z,16.90
2018-12-23T02:54:58.362Z,16.30
2018-12-23T02:56:03.875Z,16.30
2018-12-23T02:57:09.385Z,15.90
2018-12-23T02:58:14.897Z,16.60
2018-12-23T02:59:20.402Z,16.30
2018-12-23T03:00:25.913Z,17.00
2018-12-23T03:01:31.423Z,17.00
2018-12-23T03:02:36.930Z,16.10
2018-12-23T03:03:42.443Z,16.20
2018-12-23T03:04:47.950Z,16.80
2018-12-23T03:05:53.465Z,16.70
2018-12-23T03:06:58.972Z,16.30
2018-12-23T03:08:04.481Z,17.20
2018-12-23T03:09:09.989Z,16.70
2018-12-23T03:10:15.501Z,16.90
2018-12-23T03:11:21.012Z,17.00
2018-12-23T03:12:26.520Z,16.70
2018-12-23T03:13:32.025Z,16.90
2018-12-23T03:14:37.549Z,16.20
2018-12-23T03:15:43.047Z,16.40
2018-12-23T03:16:48.560Z,16.70
2018-12-23T03:17:54.065Z,15.80
2018-12-23T03:18:59.574Z,16.30
2018-12-23T03:20:05.096Z,15.50
2018-12-23T03:21:10.595Z,15.50
2018-12-23T03:22:16.106Z,15.40
2018-12-23T03:23:21.621Z,16.10
2018-12-23T03:24:27.124Z,15.90
2018-12-23T03:25:32.635Z,15.90
2018-12-23T03:26:38.141Z,15.20
2018-12-23T03:27:43.655Z,16.10
2018-12-23T03:28:49.160Z,16.40
2018-12-23T03:29:54.671Z,15.60
2018-12-23T03:31:00.181Z,16.10
2018-12-23T03:32:05.690Z,16.50
2018-12-23T03:33:11.202Z,16.70
2018-12-23T03:34:16.710Z,16.10
2018-12-23T03:35:22.219Z,16.80
2018-12-23T03:36:27.727Z,16.10
2018-12-23T03:37:33.235Z,17.00
2018-12-23T03:38:38.746Z,17.30
2018-12-23T03:39:44.261Z,17.50
2018-12-23T03:40:49.769Z,16.80
2018-12-23T03:41:55.277Z,17.60
2018-12-23T03:43:00.784Z,18.30
2018-12-23T03:44:06.297Z,19.20
2018-12-23T03:45:11.803Z,18.10
2018-12-23T03:46:17.314Z,18.50
2018-12-23T03:47:22.937Z,19.00
2018-12-23T03:48:28.333Z,19.40
2018-12-23T03:49:33.846Z,18.80
2018-12-23T03:50:39.358Z,19.60
2018-12-23T03:51:44.858Z,19.10
2018-12-23T03:52:50.376Z,20.20
2018-12-23T03:53:55.877Z,20.20
2018-12-23T03:55:01.390Z,19.30
2018-12-23T03:56:06.900Z,20.20
2018-12-23T03:57:12.413Z,20.20
2018-12-23T03:58:17.916Z,20.80
2018-12-23T03:59:23.429Z,20.70
2018-12-23T04:00:28.939Z,21.00
2018-12-23T04:01:34.445Z,21.00
2018-12-23T04:02:39.956Z,21.70
2018-12-23T04:03:45.461Z,21.90
2018-12-23T04:04:50.971Z,21.70
2018-12-23T04:05:56.491Z,21.70
2018-12-23T04:07:01.993Z,22.00
2018-12-23T04:08:07.502Z,23.30
2018-12-23T04:09:13.016Z,21.00
2018-12-23T04:10:18.526Z,21.30
2018-12-23T04:11:24.058Z,21.80
2018-12-23T04:12:29.541Z,21.30
2018-12-23T04:13:35.061Z,22.60
2018-12-23T04:14:40.559Z,23.30
2018-12-23T04:15:46.075Z,22.20
2018-12-23T04:16:51.579Z,21.40
2018-12-23T04:17:57.095Z,23.10
2018-12-23T04:19:02.595Z,22.70
2018-12-23T04:20:08.107Z,22.50
2018-12-23T04:21:13.617Z,23.10
2018-12-23T04:22:19.122Z,22.50
2018-12-23T04:23:24.629Z,22.90
2018-12-23T04:24:30.152Z,21.40
2018-12-23T04:25:35.658Z,22.00
2018-12-23T04:26:41.171Z,22.00
2018-12-23T04:27:46.675Z,22.90
2018-12-23T04:28:52.183Z,22.60
2018-12-23T04:29:57.692Z,22.50
2018-12-23T04:31:03.210Z,23.10
2018-12-23T04:32:08.724Z,22.40
2018-12-23T04:33:14.222Z,23.10
2018-12-23T04:34:19.735Z,22.90
2018-12-23T04:35:25.241Z,23.60
2018-12-23T04:36:34.130Z,22.60
2018-12-23T04:37:36.260Z,23.00
2018-12-23T04:38:41.770Z,22.20
2018-12-23T04:39:47.274Z,23.50
2018-12-23T04:40:52.787Z,23.30
2018-12-23T04:41:58.297Z,23.70
2018-12-23T04:43:03.804Z,22.10
2018-12-23T04:44:09.316Z,23.20
2018-12-23T04:45:14.831Z,23.20
2018-12-23T04:46:20.337Z,24.60
2018-12-23T04:47:25.845Z,23.30
2018-12-23T04:48:31.354Z,23.60
2018-12-23T04:49:36.862Z,23.40
2018-12-23T04:50:42.373Z,22.50
2018-12-23T04:51:47.888Z,23.10
2018-12-23T04:52:53.394Z,22.90
2018-12-23T04:53:58.897Z,21.70
2018-12-23T04:55:04.419Z,22.40
2018-12-23T04:56:09.920Z,23.60
2018-12-23T04:57:15.427Z,23.50
2018-12-23T04:58:20.936Z,23.00
2018-12-23T04:59:27.184Z,22.80
2018-12-23T05:00:31.976Z,23.40
2018-12-23T05:01:37.467Z,22.00
2018-12-23T05:02:42.976Z,22.70
2018-12-23T05:03:48.485Z,22.90
2018-12-23T05:04:53.994Z,23.00
2018-12-23T05:05:59.507Z,22.80
2018-12-23T05:07:05.010Z,23.00
2018-12-23T05:08:10.524Z,23.50
2018-12-23T05:09:16.032Z,22.90
2018-12-23T05:10:21.544Z,22.80
2018-12-23T05:11:27.052Z,23.50
2018-12-23T05:12:32.558Z,22.90
2018-12-23T05:13:38.067Z,22.80
2018-12-23T05:14:44.828Z,22.80
2018-12-23T05:15:49.089Z,23.20
2018-12-23T05:16:54.596Z,22.70
2018-12-23T05:18:00.110Z,23.10
2018-12-23T05:19:05.617Z,23.40
2018-12-23T05:20:11.125Z,23.70
2018-12-23T05:21:16.635Z,24.30
2018-12-23T05:22:22.147Z,23.30
2018-12-23T05:23:27.651Z,22.60
2018-12-23T05:24:33.163Z,24.80
2018-12-23T05:25:38.672Z,23.50
2018-12-23T05:26:44.182Z,23.50
2018-12-23T05:27:49.695Z,22.80
2018-12-23T05:28:55.203Z,23.20
2018-12-23T05:30:00.708Z,23.40
2018-12-23T05:31:06.221Z,23.70
2018-12-23T05:32:11.728Z,24.30
2018-12-23T05:33:17.311Z,22.90
2018-12-23T05:34:22.749Z,23.10
2018-12-23T05:35:28.256Z,22.70
2018-12-23T05:36:33.767Z,23.40
2018-12-23T05:37:39.280Z,23.30
2018-12-23T05:38:44.783Z,23.20
2018-12-23T05:39:50.299Z,23.30
2018-12-23T05:40:55.804Z,21.50
2018-12-23T05:42:01.317Z,21.80
2018-12-23T05:43:06.821Z,23.80
2018-12-23T05:44:12.335Z,21.60
2018-12-23T05:45:17.844Z,22.00
2018-12-23T05:46:23.357Z,23.30
2018-12-23T05:47:28.863Z,22.00
2018-12-23T05:48:34.373Z,22.00
2018-12-23T05:49:39.879Z,22.30
2018-12-23T05:50:45.395Z,21.30
2018-12-23T05:51:50.903Z,21.70
2018-12-23T05:52:56.413Z,21.70
2018-12-23T05:54:01.922Z,20.20
2018-12-23T05:55:07.429Z,19.40
2018-12-23T05:56:12.935Z,20.00
2018-12-23T05:57:18.451Z,18.40
2018-12-23T05:58:23.958Z,18.60
2018-12-23T05:59:29.470Z,19.40
2018-12-23T06:00:34.975Z,18.40
2018-12-23T06:01:40.486Z,17.70
2018-12-23T06:02:45.998Z,17.40
2018-12-23T06:03:51.612Z,16.90
2018-12-23T06:04:57.016Z,17.10
2018-12-23T06:06:02.553Z,16.90
2018-12-23T06:07:08.034Z,17.00
2018-12-23T06:08:13.544Z,16.40
2018-12-23T06:09:19.050Z,16.90
2018-12-23T06:10:24.568Z,16.30
2018-12-23T06:11:30.068Z,15.60
2018-12-23T06:12:35.587Z,16.20
2018-12-23T06:13:41.088Z,15.40
2018-12-23T06:14:46.598Z,15.80
2018-12-23T06:15:52.117Z,15.40
2018-12-23T06:16:57.619Z,14.80
2018-12-23T06:18:03.139Z,16.10
2018-12-23T06:19:08.644Z,14.80
2018-12-23T06:20:14.144Z,15.10
2018-12-23T06:21:19.706Z,15.20
2018-12-23T06:22:25.165Z,15.40
2018-12-23T06:23:30.676Z,15.20
2018-12-23T06:24:36.189Z,15.70
2018-12-23T06:25:41.691Z,15.70
2018-12-23T06:26:47.204Z,16.30
2018-12-23T06:27:52.714Z,16.00
2018-12-23T06:28:58.222Z,15.90
2018-12-23T06:30:03.734Z,16.70
2018-12-23T06:31:09.242Z,16.30
2018-12-23T06:32:14.755Z,14.70
2018-12-23T06:33:20.263Z,14.70
2018-12-23T06:34:25.777Z,15.10
2018-12-23T06:35:31.279Z,15.20
2018-12-23T06:36:36.788Z,15.10
2018-12-23T06:37:42.302Z,14.60
2018-12-23T06:38:47.815Z,14.20
2018-12-23T06:39:53.316Z,13.20
2018-12-23T06:40:58.828Z,13.70
2018-12-23T06:42:04.336Z,13.80
2018-12-23T06:43:09.860Z,13.50
2018-12-23T06:44:15.354Z,13.30
2018-12-23T06:45:20.871Z,13.40
2018-12-23T06:46:26.376Z,13.40
2018-12-23T06:47:31.883Z,13.20
2018-12-23T06:48:37.396Z,13.20
2018-12-23T06:49:42.902Z,12.60
2018-12-23T06:50:48.413Z,12.90
2018-12-23T06:51:54.005Z,13.00
2018-12-23T06:52:59.432Z,12.90
2018-12-23T06:54:04.944Z,12.90
2018-12-23T06:55:10.451Z,13.60
2018-12-23T06:56:15.969Z,12.50
2018-12-23T06:57:21.468Z,13.40
2018-12-23T06:58:26.981Z,13.80
2018-12-23T06:59:32.488Z,12.70
2018-12-23T07:00:38.028Z,12.90
2018-12-23T07:01:43.506Z,13.20
2018-12-23T07:02:49.017Z,13.20
2018-12-23T07:03:54.527Z,13.30
2018-12-23T07:05:00.037Z,13.50
2018-12-23T07:06:05.648Z,13.80
2018-12-23T07:07:18.416Z,12.70
2018-12-23T07:08:16.567Z,13.10
2018-12-23T07:09:22.087Z,13.30
2018-12-23T07:10:27.591Z,14.30
2018-12-23T07:11:33.097Z,13.90
2018-12-23T07:12:38.604Z,14.00
2018-12-23T07:13:44.111Z,14.50
2018-12-23T07:14:49.623Z,14.00
2018-12-23T07:15:55.127Z,14.00
2018-12-23T07:17:00.643Z,14.40
2018-12-23T07:18:06.147Z,14.70
2018-12-23T07:19:11.659Z,14.40
2018-12-23T07:20:17.174Z,14.20
2018-12-23T07:21:22.678Z,14.80
2018-12-23T07:22:28.192Z,14.00
2018-12-23T07:23:33.700Z,14.80
2018-12-23T07:24:39.207Z,14.10
2018-12-23T07:25:44.714Z,14.60
2018-12-23T07:26:50.238Z,14.60
2018-12-23T07:27:55.737Z,13.90
2018-12-23T07:29:01.252Z,13.90
2018-12-23T07:30:06.756Z,14.00
2018-12-23T07:31:12.261Z,14.20
2018-12-23T07:32:17.773Z,13.90
2018-12-23T07:33:23.286Z,13.60
2018-12-23T07:34:28.798Z,14.30
2018-12-23T07:35:34.319Z,14.20
2018-12-23T07:36:39.813Z,14.50
2018-12-23T07:37:45.322Z,14.20
2018-12-23T07:38:50.830Z,14.30
2018-12-23T07:39:56.341Z,14.00
2018-12-23T07:41:01.857Z,13.50
2018-12-23T07:42:07.380Z,14.80
2018-12-23T07:43:12.877Z,14.10
2018-12-23T07:44:18.383Z,13.70
2018-12-23T07:45:23.894Z,14.00
2018-12-23T07:46:29.404Z,13.80
2018-12-23T07:47:34.913Z,14.10
2018-12-23T07:48:40.420Z,14.30
2018-12-23T07:49:45.929Z,14.70
2018-12-23T07:50:53.666Z,15.00
2018-12-23T07:51:56.948Z,13.80
2018-12-23T07:53:02.463Z,13.20
2018-12-23T07:54:08.004Z,13.50
2018-12-23T07:55:13.478Z,13.20
2018-12-23T07:56:18.985Z,14.30
2018-12-23T07:57:24.502Z,13.40
2018-12-23T07:58:30.012Z,13.30
2018-12-23T07:59:35.519Z,13.70
2018-12-23T08:00:41.025Z,13.60
2018-12-23T08:01:46.540Z,13.60
2018-12-23T08:02:52.043Z,13.50
2018-12-23T08:03:57.554Z,13.80
2018-12-23T08:05:03.074Z,14.10
2018-12-23T08:06:08.576Z,13.10
2018-12-23T08:07:14.099Z,13.40
2018-12-23T08:08:19.596Z,13.40
2018-12-23T08:09:25.112Z,12.90
2018-12-23T08:10:30.614Z,12.50
2018-12-23T08:11:36.123Z,13.10
2018-12-23T08:12:42.569Z,13.30
2018-12-23T08:13:47.141Z,12.90
2018-12-23T08:14:52.654Z,12.50
2018-12-23T08:15:58.165Z,13.00
2018-12-23T08:17:03.679Z,13.10
2018-12-23T08:18:09.186Z,12.30
2018-12-23T08:19:14.691Z,12.40
2018-12-23T08:20:20.202Z,12.40
2018-12-23T08:21:25.709Z,12.80
2018-12-23T08:22:31.219Z,12.60
2018-12-23T08:23:36.734Z,12.70
2018-12-23T08:24:42.240Z,12.30
2018-12-23T08:25:47.756Z,12.40
2018-12-23T08:26:53.262Z,12.70
2018-12-23T08:27:58.767Z,13.00
2018-12-23T08:29:04.284Z,12.50
2018-12-23T08:30:09.786Z,12.90
2018-12-23T08:31:15.302Z,12.90
2018-12-23T08:32:20.808Z,12.70
2018-12-23T08:33:26.320Z,12.20
2018-12-23T08:34:31.830Z,12.90
2018-12-23T08:35:37.339Z,12.50
2018-12-23T08:36:42.851Z,13.30
2018-12-23T08:37:48.362Z,12.80
2018-12-23T08:38:53.872Z,12.70
2018-12-23T08:39:59.377Z,12.90
2018-12-23T08:41:04.893Z,12.60
2018-12-23T08:42:10.396Z,13.00
2018-12-23T08:43:15.905Z,13.00
2018-12-23T08:44:21.414Z,13.60
2018-12-23T08:45:26.956Z,13.60
2018-12-23T08:46:39.167Z,14.00
2018-12-23T08:47:37.944Z,13.70
2018-12-23T08:48:43.451Z,13.80
2018-12-23T08:49:48.962Z,13.00
2018-12-23T08:50:54.473Z,14.10
2018-12-23T08:51:59.988Z,13.30
2018-12-23T08:53:05.494Z,13.00
2018-12-23T08:54:11.003Z,13.40
2018-12-23T08:55:16.514Z,13.50
2018-12-23T08:56:22.025Z,13.50
2018-12-23T08:57:27.533Z,13.60
2018-12-23T08:58:33.051Z,13.90
2018-12-23T08:59:38.553Z,13.70
2018-12-23T09:00:44.064Z,13.90
2018-12-23T09:01:49.575Z,12.80
2018-12-23T09:02:55.087Z,13.50
2018-12-23T09:04:00.594Z,12.70
2018-12-23T09:05:06.103Z,12.60
2018-12-23T09:06:11.616Z,12.20
2018-12-23T09:07:17.133Z,11.60
2018-12-23T09:08:22.635Z,12.60
2018-12-23T09:09:28.142Z,11.90
2018-12-23T09:10:33.656Z,12.20
2018-12-23T09:11:42.819Z,12.20
2018-12-23T09:12:44.681Z,11.90
2018-12-23T09:13:50.186Z,12.00
2018-12-23T09:14:55.697Z,11.70
2018-12-23T09:16:01.204Z,12.60
2018-12-23T09:17:06.712Z,10.60
2018-12-23T09:18:19.296Z,12.10
2018-12-23T09:19:17.734Z,12.00
2018-12-23T09:20:23.243Z,11.80
2018-12-23T09:21:28.772Z,11.80
2018-12-23T09:22:34.265Z,12.10
2018-12-23T09:23:39.773Z,12.50
2018-12-23T09:24:45.286Z,11.50
2018-12-23T09:25:50.793Z,11.60
2018-12-23T09:26:56.303Z,11.30
2018-12-23T09:28:01.825Z,11.80
2018-12-23T09:29:07.326Z,11.10
2018-12-23T09:30:12.833Z,11.50
2018-12-23T09:31:18.345Z,11.10
2018-12-23T09:32:23.853Z,10.30
2018-12-23T09:33:29.479Z,10.10
2018-12-23T09:34:34.881Z,11.00
2018-12-23T09:35:40.383Z,10.30
2018-12-23T09:36:47.745Z,9.50
2018-12-23T09:37:51.412Z,9.60
2018-12-23T09:38:56.926Z,9.70
2018-12-23T09:40:02.422Z,9.40
2018-12-23T09:41:07.935Z,8.80
2018-12-23T09:42:13.445Z,9.20
2018-12-23T09:43:18.967Z,7.90
2018-12-23T09:44:24.474Z,7.80
2018-12-23T09:45:29.976Z,8.10
2018-12-23T09:46:35.494Z,7.90
2018-12-23T09:47:40.998Z,8.10
2018-12-23T09:48:46.514Z,8.10
2018-12-23T09:49:52.025Z,8.30
2018-12-23T09:50:57.535Z,8.30
2018-12-23T09:52:03.038Z,7.90
2018-12-23T09:53:08.550Z,7.80
2018-12-23T09:54:14.063Z,7.20
2018-12-23T09:55:19.571Z,6.70
2018-12-23T09:56:25.079Z,7.40
2018-12-23T09:57:30.592Z,7.60
2018-12-23T09:58:36.100Z,7.00
2018-12-23T09:59:41.612Z,7.30
2018-12-23T10:00:47.130Z,6.60
2018-12-23T10:01:52.628Z,6.70
2018-12-23T10:02:58.153Z,6.80
2018-12-23T10:04:03.662Z,6.50
2018-12-23T10:05:09.162Z,7.10
2018-12-23T10:06:14.671Z,6.50
2018-12-23T10:07:20.186Z,6.70
2018-12-23T10:08:25.705Z,6.80
2018-12-23T10:09:31.211Z,6.90
2018-12-23T10:10:36.718Z,6.70
2018-12-23T10:11:42.226Z,6.20
2018-12-23T10:12:47.734Z,7.20
2018-12-23T10:13:53.252Z,6.60
2018-12-23T10:14:58.755Z,6.30
2018-12-23T10:16:04.268Z,6.40
2018-12-23T10:17:09.770Z,6.40
2018-12-23T10:18:15.286Z,6.60
2018-12-23T10:19:20.797Z,6.50
2018-12-23T10:20:26.308Z,6.70
2018-12-23T10:21:31.825Z,6.40
2018-12-23T10:22:37.331Z,6.40
2018-12-23T10:23:42.839Z,6.20
2018-12-23T10:24:48.353Z,6.40
2018-12-23T10:25:53.863Z,6.70
2018-12-23T10:26:59.373Z,6.80
2018-12-23T10:28:04.886Z,6.80
2018-12-23T10:29:10.391Z,6.00
2018-12-23T10:30:15.904Z,6.40
2018-12-23T10:31:21.417Z,6.40
2018-12-23T10:32:26.922Z,6.60
2018-12-23T10:33:32.437Z,6.70
2018-12-23T10:34:37.948Z,6.50
2018-12-23T10:35:43.455Z,6.40
2018-12-23T10:36:48.961Z,6.40
2018-12-23T10:37:54.480Z,7.00
2018-12-23T10:38:59.986Z,7.30
2018-12-23T10:40:05.497Z,6.10
2018-12-23T10:41:11.015Z,6.60
2018-12-23T10:42:16.518Z,6.40
2018-12-23T10:43:22.090Z,6.70
2018-12-23T10:44:27.538Z,7.10
2018-12-23T10:45:33.052Z,6.20
2018-12-23T10:46:38.561Z,6.70
2018-12-23T10:47:44.066Z,6.20
2018-12-23T10:48:49.580Z,6.50
2018-12-23T10:49:55.091Z,6.70
2018-12-23T10:51:00.600Z,6.20
2018-12-23T10:52:06.112Z,6.30
2018-12-23T10:53:11.619Z,6.50
2018-12-23T10:54:17.135Z,6.50
2018-12-23T10:55:22.640Z,6.80
2018-12-23T10:56:28.153Z,6.40
2018-12-23T10:57:33.664Z,6.50
2018-12-23T10:58:39.177Z,6.00
2018-12-23T10:59:44.691Z,6.20
2018-12-23T11:00:50.204Z,6.20
2018-12-23T11:01:55.701Z,6.50
2018-12-23T11:03:01.216Z,6.70
2018-12-23T11:04:06.736Z,6.50
2018-12-23T11:05:12.234Z,5.70
2018-12-23T11:06:17.745Z,5.90
2018-12-23T11:07:23.252Z,6.00
2018-12-23T11:08:28.763Z,6.00
2018-12-23T11:09:34.280Z,6.20
2018-12-23T11:10:39.788Z,6.50
2018-12-23T11:11:45.296Z,6.30
2018-12-23T11:12:50.809Z,6.10
2018-12-23T11:13:56.322Z,5.80
2018-12-23T11:15:01.832Z,5.90
2018-12-23T11:16:07.342Z,6.30
2018-12-23T11:17:12.856Z,6.00
2018-12-23T11:18:18.361Z,5.80
2018-12-23T11:19:23.870Z,5.70
2018-12-23T11:20:29.390Z,6.70
2018-12-23T11:21:34.902Z,6.00
2018-12-23T11:22:40.410Z,6.10
2018-12-23T11:23:45.914Z,5.90
2018-12-23T11:24:51.425Z,5.80
2018-12-23T11:25:56.936Z,6.60
2018-12-23T11:27:02.457Z,6.40
2018-12-23T11:28:07.966Z,6.30
2018-12-23T11:29:13.464Z,6.40
2018-12-23T11:30:18.990Z,6.60
2018-12-23T11:31:24.486Z,6.80
2018-12-23T11:32:29.997Z,6.40
2018-12-23T11:33:35.516Z,6.50
2018-12-23T11:34:41.036Z,6.60
2018-12-23T11:35:46.533Z,6.50
2018-12-23T11:36:52.042Z,6.40
2018-12-23T11:37:57.553Z,6.80
2018-12-23T11:39:03.072Z,6.70
2018-12-23T11:40:08.579Z,7.00
2018-12-23T11:41:14.085Z,6.50
2018-12-23T11:42:19.590Z,7.60
2018-12-23T11:43:25.104Z,6.40
2018-12-23T11:44:30.616Z,7.10
2018-12-23T11:45:36.134Z,7.30
2018-12-23T11:46:41.634Z,7.00
2018-12-23T11:47:47.142Z,7.40
2018-12-23T11:48:52.657Z,7.40
2018-12-23T11:49:58.168Z,7.70
2018-12-23T11:51:03.678Z,7.70
2018-12-23T11:52:09.185Z,7.10
2018-12-23T11:53:14.702Z,7.70
2018-12-23T11:54:20.217Z,7.90
2018-12-23T11:55:25.717Z,7.60
2018-12-23T11:56:31.229Z,8.20
2018-12-23T11:57:36.738Z,8.20
2018-12-23T11:58:42.255Z,7.30
2018-12-23T11:59:47.758Z,7.90
2018-12-23T12:00:53.268Z,7.50
2018-12-23T12:01:58.788Z,7.70
2018-12-23T12:03:04.288Z,7.30
2018-12-23T12:04:09.801Z,8.10
2018-12-23T12:05:15.309Z,7.70
2018-12-23T12:06:20.820Z,7.70
2018-12-23T12:07:26.330Z,7.70
2018-12-23T12:08:31.844Z,7.70
2018-12-23T12:09:37.371Z,7.70
2018-12-23T12:10:42.862Z,8.10
2018-12-23T12:11:48.380Z,7.40
2018-12-23T12:12:53.885Z,8.50
2018-12-23T12:13:59.404Z,8.10
2018-12-23T12:15:04.904Z,8.50
2018-12-23T12:16:10.414Z,8.20
2018-12-23T12:17:15.927Z,8.40
2018-12-23T12:18:21.435Z,8.20
2018-12-23T12:19:26.946Z,8.30
2018-12-23T12:20:32.457Z,8.70
2018-12-23T12:21:37.969Z,8.80
2018-12-23T12:22:43.477Z,8.90
2018-12-23T12:23:48.995Z,9.30
2018-12-23T12:24:54.495Z,9.50
2018-12-23T12:26:00.017Z,9.20
2018-12-23T12:27:05.517Z,8.60
2018-12-23T12:28:11.030Z,8.80
2018-12-23T12:29:16.539Z,9.60
2018-12-23T12:30:22.142Z,9.20
2018-12-23T12:31:27.562Z,9.20
2018-12-23T12:32:33.074Z,9.30
2018-12-23T12:33:38.578Z,8.60
2018-12-23T12:34:44.090Z,8.70
2018-12-23T12:35:49.605Z,7.80
2018-12-23T12:36:55.111Z,7.80
2018-12-23T12:38:00.632Z,7.30
2018-12-23T12:39:06.140Z,7.40
2018-12-23T12:40:11.649Z,7.60
2018-12-23T12:41:17.156Z,7.10
2018-12-23T12:42:22.665Z,7.10
2018-12-23T12:43:28.172Z,7.60
2018-12-23T12:44:33.692Z,7.20
2018-12-23T12:45:39.200Z,7.00
2018-12-23T12:46:44.712Z,7.60
2018-12-23T12:47:50.220Z,8.00
2018-12-23T12:48:55.726Z,7.40
2018-12-23T12:50:01.238Z,7.00
2018-12-23T12:51:06.750Z,6.60
2018-12-23T12:52:12.257Z,6.80
2018-12-23T12:53:17.767Z,6.50
2018-12-23T12:54:23.279Z,6.60
2018-12-23T12:55:28.794Z,6.40
2018-12-23T12:56:34.299Z,5.70
2018-12-23T12:57:39.810Z,6.50
2018-12-23T12:58:45.326Z,6.80
2018-12-23T12:59:50.845Z,6.20
2018-12-23T13:00:56.343Z,6.40
2018-12-23T13:02:01.849Z,6.70
2018-12-23T13:03:07.359Z,6.60
2018-12-23T13:04:12.871Z,6.60
2018-12-23T13:05:18.377Z,6.20
2018-12-23T13:06:23.894Z,5.40
2018-12-23T13:07:29.421Z,5.50
2018-12-23T13:08:34.924Z,6.30
2018-12-23T13:09:40.425Z,5.60
2018-12-23T13:10:45.935Z,4.90
2018-12-23T13:11:51.456Z,5.00
2018-12-23T13:12:56.951Z,5.10
2018-12-23T13:14:02.461Z,5.00
2018-12-23T13:15:09.192Z,5.20
2018-12-23T13:16:13.476Z,5.20
2018-12-23T13:17:19.010Z,5.60
2018-12-23T13:18:24.504Z,4.80
2018-12-23T13:19:30.014Z,4.70
2018-12-23T13:20:35.528Z,4.50
2018-12-23T13:21:41.034Z,4.80
2018-12-23T13:22:46.539Z,4.40
2018-12-23T13:23:52.060Z,4.00
2018-12-23T13:24:57.569Z,4.90
2018-12-23T13:26:03.091Z,3.80
2018-12-23T13:27:08.582Z,4.10
2018-12-23T13:28:14.101Z,4.10
2018-12-23T13:29:19.610Z,3.80
2018-12-23T13:30:25.115Z,4.00
2018-12-23T13:31:30.624Z,4.10
2018-12-23T13:32:36.137Z,3.70
2018-12-23T13:33:41.651Z,3.80
2018-12-23T13:34:47.152Z,4.10
2018-12-23T13:35:52.662Z,3.70
2018-12-23T13:36:58.172Z,3.90
2018-12-23T13:38:03.685Z,3.90
2018-12-23T13:39:09.354Z,3.80
2018-12-23T13:40:14.701Z,3.80
2018-12-23T13:41:20.243Z,3.90
2018-12-23T13:42:25.723Z,3.90
2018-12-23T13:43:31.225Z,4.10
2018-12-23T13:44:36.741Z,3.80
2018-12-23T13:45:42.259Z,4.20
2018-12-23T13:46:47.770Z,4.70
2018-12-23T13:47:53.273Z,3.90
2018-12-23T13:48:58.780Z,4.20
2018-12-23T13:50:04.292Z,4.30
2018-12-23T13:51:09.801Z,4.40
2018-12-23T13:52:15.311Z,4.00
2018-12-23T13:53:20.827Z,4.10
2018-12-23T13:54:26.330Z,4.40
2018-12-23T13:55:31.843Z,4.80
2018-12-23T13:56:37.352Z,4.90
2018-12-23T13:57:42.858Z,4.90
2018-12-23T13:58:48.371Z,4.80
2018-12-23T13:59:53.882Z,4.90
2018-12-23T14:00:59.393Z,4.90
2018-12-23T14:02:04.900Z,5.20
2018-12-23T14:03:10.408Z,5.10
2018-12-23T14:04:15.920Z,5.10
2018-12-23T14:05:21.431Z,5.10
2018-12-23T14:06:26.939Z,5.50
2018-12-23T14:07:32.456Z,5.30
2018-12-23T14:08:37.957Z,5.10
2018-12-23T14:09:43.472Z,5.40
2018-12-23T14:10:48.973Z,5.30
2018-12-23T14:11:54.495Z,4.70
2018-12-23T14:13:00.003Z,4.80
2018-12-23T14:14:05.507Z,5.20